createdAt,value
2019-02-26T00:00:58.664Z,0.60
2019-02-26T00:03:31.419Z,0.50
2019-02-26T00:06:03.660Z,0.50
2019-02-26T00:08:34.462Z,0.50
2019-02-26T00:11:06.717Z,0.40
2019-02-26T00:13:37.524Z,0.40
2019-02-26T00:16:10.577Z,0.40
2019-02-26T00:18:42.573Z,0.30
2019-02-26T00:21:13.202Z,0.30
2019-02-26T00:23:44.827Z,0.20
2019-02-26T00:26:17.755Z,0.20
2019-02-26T00:28:48.729Z,0.30
2019-02-26T00:31:21.536Z,0.20
2019-02-26T00:33:53.090Z,0.20
2019-02-26T00:36:23.711Z,0.20
2019-02-26T00:38:56.028Z,0.10
2019-02-26T00:41:26.925Z,0.20
2019-02-26T00:43:59.849Z,0.10
2019-02-26T00:46:32.631Z,0.00
2019-02-26T00:49:05.769Z,0.10
2019-02-26T00:51:36.480Z,0.00
2019-02-26T00:54:07.216Z,-0.10
2019-02-26T00:56:39.326Z,-0.10
2019-02-26T00:59:10.692Z,-0.10
2019-02-26T01:01:44.121Z,-0.10
2019-02-26T01:04:13.666Z,-0.20
2019-02-26T01:06:44.295Z,-0.30
2019-02-26T01:09:15.706Z,-0.20
2019-02-26T01:11:47.623Z,-0.30
2019-02-26T01:14:20.320Z,-0.40
2019-02-26T01:16:52.394Z,-0.40
2019-02-26T01:19:23.218Z,-0.40
2019-02-26T01:21:54.155Z,-0.40
2019-02-26T01:24:25.996Z,-0.40
2019-02-26T01:26:57.256Z,-0.40
2019-02-26T01:29:29.982Z,-0.40
2019-02-26T01:32:02.185Z,-0.40
2019-02-26T01:34:33.225Z,-0.40
2019-02-26T01:37:05.556Z,-0.50
2019-02-26T01:39:38.320Z,-0.40
2019-02-26T01:42:10.688Z,-0.40
2019-02-26T01:44:42.223Z,-0.40
2019-02-26T01:47:13.571Z,-0.40
2019-02-26T01:49:46.419Z,-0.50
2019-02-26T01:52:17.481Z,-0.60
2019-02-26T01:54:48.373Z,-0.60
2019-02-26T01:57:20.620Z,-0.60
2019-02-26T01:59:51.341Z,-0.50
2019-02-26T02:02:24.797Z,-0.50
2019-02-26T02:04:55.484Z,-0.60
2019-02-26T02:07:28.722Z,-0.60
2019-02-26T02:10:00.554Z,-0.60
2019-02-26T02:12:34.264Z,-0.60
2019-02-26T02:15:05.160Z,-0.70
2019-02-26T02:17:37.790Z,-0.70
2019-02-26T02:20:12.665Z,-0.70
2019-02-26T02:22:44.407Z,-0.80
2019-02-26T02:25:15.514Z,-0.80
2019-02-26T02:27:49.728Z,-0.90
2019-02-26T02:30:26.693Z,-0.90
2019-02-26T02:32:56.857Z,-0.90
2019-02-26T02:35:24.650Z,-0.90
2019-02-26T02:37:57.076Z,-1.00
2019-02-26T02:40:27.822Z,-1.00
2019-02-26T02:42:58.388Z,-1.10
2019-02-26T02:45:28.997Z,-1.00
2019-02-26T02:48:00.716Z,-1.10
2019-02-26T02:50:32.200Z,-1.10
2019-02-26T02:53:04.028Z,-1.20
2019-02-26T02:55:34.721Z,-1.20
2019-02-26T02:58:05.492Z,-1.20
2019-02-26T03:00:36.398Z,-1.20
2019-02-26T03:03:06.950Z,-1.30
2019-02-26T03:05:40.603Z,-1.20
2019-02-26T03:08:11.456Z,-1.30
2019-02-26T03:10:44.932Z,-1.20
2019-02-26T03:13:16.817Z,-1.20
2019-02-26T03:15:49.647Z,-1.30
2019-02-26T03:18:20.795Z,-1.30
2019-02-26T03:20:53.818Z,-1.30
2019-02-26T03:23:24.127Z,-1.30
2019-02-26T03:25:55.167Z,-1.30
2019-02-26T03:28:25.962Z,-1.40
2019-02-26T03:30:56.585Z,-1.30
2019-02-26T03:33:27.464Z,-1.30
2019-02-26T03:35:58.068Z,-1.30
2019-02-26T03:38:28.954Z,-1.40
2019-02-26T03:41:03.247Z,-1.40
2019-02-26T03:43:34.014Z,-1.40
2019-02-26T03:46:04.559Z,-1.50
2019-02-26T03:48:35.422Z,-1.50
2019-02-26T03:51:06.058Z,-1.40
2019-02-26T03:53:39.033Z,-1.40
2019-02-26T03:56:12.486Z,-1.50
2019-02-26T03:58:41.743Z,-1.50
2019-02-26T04:01:13.679Z,-1.50
2019-02-26T04:03:44.912Z,-1.60
2019-02-26T04:06:15.524Z,-1.60
2019-02-26T04:08:48.567Z,-1.60
2019-02-26T04:11:20.015Z,-1.60
2019-02-26T04:13:52.151Z,-1.60
2019-02-26T04:16:23.645Z,-1.60
2019-02-26T04:18:54.576Z,-1.60
2019-02-26T04:21:25.170Z,-1.50
2019-02-26T04:23:55.729Z,-1.50
2019-02-26T04:27:38.795Z,-1.60
2019-02-26T04:31:03.143Z,-1.70
2019-02-26T04:34:38.808Z,-1.70
2019-02-26T04:38:20.740Z,-1.70
2019-02-26T04:41:24.350Z,-1.70
2019-02-26T04:44:52.356Z,-1.70
2019-02-26T04:47:30.776Z,-1.80
2019-02-26T04:50:02.841Z,-1.80
2019-02-26T04:52:35.364Z,-1.80
2019-02-26T04:55:05.775Z,-1.80
2019-02-26T04:57:39.462Z,-1.80
2019-02-26T05:00:10.630Z,-1.80
2019-02-26T05:02:41.664Z,-1.90
2019-02-26T05:05:12.281Z,-1.90
2019-02-26T05:07:46.523Z,-1.80
2019-02-26T05:10:15.245Z,-1.90
2019-02-26T05:12:45.831Z,-1.90
2019-02-26T05:15:20.287Z,-1.90
2019-02-26T05:17:50.350Z,-1.90
2019-02-26T05:20:21.197Z,-1.90
2019-02-26T05:22:59.418Z,-1.90
2019-02-26T05:25:27.892Z,-1.90
2019-02-26T05:27:58.750Z,-1.90
2019-02-26T05:30:29.419Z,-2.00
2019-02-26T05:33:00.850Z,-1.90
2019-02-26T05:35:32.452Z,-1.90
2019-02-26T05:38:06.038Z,-2.00
2019-02-26T05:40:37.715Z,-2.00
2019-02-26T05:43:07.843Z,-2.10
2019-02-26T05:45:38.446Z,-2.10
2019-02-26T05:48:09.016Z,-2.10
2019-02-26T05:50:42.012Z,-2.00
2019-02-26T05:53:13.456Z,-2.20
2019-02-26T05:55:47.489Z,-2.20
2019-02-26T05:58:19.314Z,-2.10
2019-02-26T06:00:49.152Z,-2.10
2019-02-26T06:03:21.271Z,-2.20
2019-02-26T06:05:54.928Z,-2.10
2019-02-26T06:08:26.651Z,-2.20
2019-02-26T06:10:56.955Z,-2.30
2019-02-26T06:13:29.111Z,-2.20
2019-02-26T06:16:02.271Z,-2.20
2019-02-26T06:18:33.109Z,-2.20
2019-02-26T06:21:03.945Z,-2.10
2019-02-26T06:23:36.709Z,-2.10
2019-02-26T06:26:14.173Z,-2.10
2019-02-26T06:28:43.507Z,-2.10
2019-02-26T06:31:17.474Z,-2.00
2019-02-26T06:33:47.818Z,-2.00
2019-02-26T06:36:21.048Z,-2.00
2019-02-26T06:38:53.698Z,-2.00
2019-02-26T06:41:23.491Z,-1.90
2019-02-26T06:43:55.119Z,-1.90
2019-02-26T06:46:27.184Z,-1.90
2019-02-26T06:48:58.453Z,-1.80
2019-02-26T06:51:30.766Z,-1.60
2019-02-26T06:54:01.533Z,-1.50
2019-02-26T06:56:34.466Z,-1.20
2019-02-26T06:59:12.267Z,-1.00
2019-02-26T07:01:43.102Z,-0.80
2019-02-26T07:04:14.026Z,-0.60
2019-02-26T07:06:44.921Z,-0.40
2019-02-26T07:09:17.909Z,-0.40
2019-02-26T07:11:48.078Z,-0.20
2019-02-26T07:14:18.703Z,0.00
2019-02-26T07:16:49.292Z,0.00
2019-02-26T07:19:21.478Z,0.00
2019-02-26T07:21:53.041Z,0.20
2019-02-26T07:24:24.758Z,0.40
2019-02-26T07:26:56.338Z,0.40
2019-02-26T07:29:30.710Z,0.30
2019-02-26T07:32:00.115Z,0.30
2019-02-26T07:34:30.970Z,0.50
2019-02-26T07:37:01.605Z,0.90
2019-02-26T07:39:32.202Z,0.90
2019-02-26T07:42:03.033Z,1.10
2019-02-26T07:44:33.622Z,1.20
2019-02-26T07:47:06.708Z,1.20
2019-02-26T07:49:38.098Z,1.30
2019-02-26T07:52:09.042Z,1.50
2019-02-26T07:54:41.894Z,1.60
2019-02-26T07:57:12.056Z,1.80
2019-02-26T07:59:44.928Z,2.00
2019-02-26T08:02:15.179Z,2.00
2019-02-26T08:04:45.787Z,2.10
2019-02-26T08:07:16.335Z,2.40
2019-02-26T08:09:47.159Z,2.70
2019-02-26T08:12:17.800Z,3.00
2019-02-26T08:14:50.097Z,3.30
2019-02-26T08:17:21.498Z,3.50
2019-02-26T08:19:52.163Z,4.00
2019-02-26T08:22:24.684Z,4.10
2019-02-26T08:24:57.503Z,4.40
2019-02-26T08:27:28.558Z,4.70
2019-02-26T08:30:00.923Z,5.10
2019-02-26T08:32:32.212Z,5.00
2019-02-26T08:35:02.814Z,4.80
2019-02-26T08:37:33.395Z,5.10
2019-02-26T08:40:04.343Z,4.90
2019-02-26T08:42:35.447Z,5.70
2019-02-26T08:45:08.664Z,5.60
2019-02-26T08:47:39.220Z,5.80
2019-02-26T08:50:12.446Z,6.40
2019-02-26T08:52:45.827Z,6.40
2019-02-26T08:55:18.099Z,6.30
2019-02-26T08:57:51.256Z,6.20
2019-02-26T09:00:21.554Z,6.50
2019-02-26T09:02:54.443Z,7.10
2019-02-26T09:05:26.337Z,7.40
2019-02-26T09:07:57.354Z,6.90
2019-02-26T09:10:28.190Z,6.90
2019-02-26T09:12:58.885Z,7.30
2019-02-26T09:15:31.307Z,7.40
2019-02-26T09:18:02.127Z,7.50
2019-02-26T09:20:32.784Z,7.90
2019-02-26T09:23:03.344Z,8.90
2019-02-26T09:25:34.300Z,8.50
2019-02-26T09:28:05.166Z,8.90
2019-02-26T09:30:37.863Z,9.30
2019-02-26T09:33:10.522Z,9.80
2019-02-26T09:35:41.018Z,10.20
2019-02-26T09:38:12.307Z,10.00
2019-02-26T09:40:45.282Z,10.10
2019-02-26T09:43:17.277Z,10.60
2019-02-26T09:45:50.532Z,10.80
2019-02-26T09:48:22.040Z,10.20
2019-02-26T09:50:52.734Z,10.50
2019-02-26T09:53:23.604Z,10.80
2019-02-26T09:55:54.451Z,10.80
2019-02-26T09:58:25.432Z,10.90
2019-02-26T10:00:56.318Z,11.10
2019-02-26T10:03:29.564Z,11.20
2019-02-26T10:05:59.827Z,11.40
2019-02-26T10:08:30.748Z,11.50
2019-02-26T10:11:02.719Z,11.50
2019-02-26T10:13:33.831Z,11.90
2019-02-26T10:16:06.410Z,12.50
2019-02-26T10:18:37.405Z,12.30
2019-02-26T10:21:09.189Z,11.90
2019-02-26T10:23:41.067Z,12.30
2019-02-26T10:26:11.736Z,12.80
2019-02-26T10:28:43.428Z,13.00
2019-02-26T10:31:14.813Z,13.20
2019-02-26T10:33:46.381Z,13.70
2019-02-26T10:36:18.414Z,13.50
2019-02-26T10:38:50.934Z,13.60
2019-02-26T10:41:21.734Z,13.40
2019-02-26T10:43:52.457Z,13.50
2019-02-26T10:46:23.370Z,13.30
2019-02-26T10:48:54.245Z,13.70
2019-02-26T10:51:27.033Z,13.90
2019-02-26T10:53:59.962Z,14.00
2019-02-26T10:56:34.127Z,14.40
2019-02-26T10:59:06.093Z,14.70
2019-02-26T11:01:35.631Z,14.90
2019-02-26T11:04:06.484Z,15.30
2019-02-26T11:06:39.719Z,15.70
2019-02-26T11:09:17.393Z,15.70
2019-02-26T11:11:45.454Z,15.60
2019-02-26T11:14:17.379Z,15.60
2019-02-26T11:16:48.542Z,15.80
2019-02-26T11:19:19.424Z,15.90
2019-02-26T11:21:55.320Z,15.90
2019-02-26T11:24:23.859Z,16.10
2019-02-26T11:26:55.473Z,16.20
2019-02-26T11:29:28.648Z,16.40
2019-02-26T11:32:01.481Z,16.70
2019-02-26T11:34:33.339Z,16.10
2019-02-26T11:37:08.521Z,16.20
2019-02-26T11:39:36.489Z,16.30
2019-02-26T11:42:07.166Z,16.00
2019-02-26T11:44:37.813Z,16.30
2019-02-26T11:47:10.785Z,16.40
2019-02-26T11:49:41.850Z,16.50
2019-02-26T11:52:13.630Z,16.80
2019-02-26T11:54:44.701Z,17.10
2019-02-26T11:57:17.639Z,17.20
2019-02-26T11:59:47.916Z,17.20
2019-02-26T12:02:25.374Z,16.90
2019-02-26T12:04:50.950Z,16.90
2019-02-26T12:07:23.096Z,17.10
2019-02-26T12:09:55.560Z,17.10
2019-02-26T12:12:28.403Z,16.80
2019-02-26T12:15:02.015Z,16.80
2019-02-26T12:17:32.184Z,17.00
2019-02-26T12:20:02.849Z,17.10
2019-02-26T12:22:33.649Z,17.00
2019-02-26T12:25:08.268Z,16.90
2019-02-26T12:27:39.016Z,16.80
2019-02-26T12:30:15.840Z,17.20
2019-02-26T12:32:48.046Z,17.20
2019-02-26T12:35:19.622Z,16.80
2019-02-26T12:37:52.757Z,16.90
2019-02-26T12:40:25.279Z,17.00
2019-02-26T12:42:55.057Z,17.10
2019-02-26T12:45:28.388Z,17.30
2019-02-26T12:47:58.425Z,17.30
2019-02-26T12:50:30.830Z,17.30
2019-02-26T12:53:01.647Z,17.30
2019-02-26T12:55:35.844Z,17.20
2019-02-26T12:58:05.605Z,17.00
2019-02-26T13:00:38.368Z,17.10
2019-02-26T13:03:12.337Z,17.20
2019-02-26T13:05:43.552Z,17.10
2019-02-26T13:08:17.181Z,17.10
2019-02-26T13:10:50.559Z,17.10
2019-02-26T13:13:19.075Z,16.90
2019-02-26T13:15:49.691Z,17.00
2019-02-26T13:18:21.939Z,17.00
2019-02-26T13:20:59.388Z,16.90
2019-02-26T13:23:25.094Z,16.90
2019-02-26T13:25:55.728Z,16.80
2019-02-26T13:28:29.561Z,16.80
2019-02-26T13:31:02.368Z,16.70
2019-02-26T13:33:35.111Z,16.70
2019-02-26T13:36:04.976Z,16.80
2019-02-26T13:38:44.771Z,16.70
2019-02-26T13:41:27.658Z,16.60
2019-02-26T13:43:40.955Z,16.60
2019-02-26T13:46:11.873Z,16.60
2019-02-26T13:48:42.674Z,16.60
2019-02-26T13:51:13.282Z,16.40
2019-02-26T13:53:43.928Z,16.50
2019-02-26T13:56:14.704Z,16.60
2019-02-26T13:58:45.743Z,16.50
2019-02-26T14:01:16.419Z,16.50
2019-02-26T14:03:47.059Z,16.50
2019-02-26T14:06:17.799Z,16.30
2019-02-26T14:08:48.391Z,16.20
2019-02-26T14:11:18.955Z,16.20
2019-02-26T14:13:49.677Z,16.10
2019-02-26T14:16:21.984Z,16.20
2019-02-26T14:18:52.615Z,16.30
2019-02-26T14:21:23.829Z,16.20
2019-02-26T14:23:54.691Z,16.00
2019-02-26T14:26:25.323Z,16.20
2019-02-26T14:28:55.933Z,15.90
2019-02-26T14:31:26.833Z,16.20
2019-02-26T14:33:57.746Z,16.00
2019-02-26T14:36:28.585Z,16.20
2019-02-26T14:38:59.276Z,16.00
2019-02-26T14:41:30.234Z,15.70
2019-02-26T14:44:00.871Z,15.50
2019-02-26T14:46:32.071Z,15.50
2019-02-26T14:49:02.797Z,15.40
2019-02-26T14:51:34.054Z,15.50
2019-02-26T14:54:06.487Z,15.30
2019-02-26T14:56:37.348Z,16.00
2019-02-26T14:59:08.044Z,15.80
2019-02-26T15:01:39.066Z,15.60
2019-02-26T15:04:09.750Z,15.90
2019-02-26T15:06:40.736Z,15.80
2019-02-26T15:09:11.898Z,15.30
2019-02-26T15:11:42.560Z,15.00
2019-02-26T15:14:15.619Z,14.80
2019-02-26T15:16:46.187Z,14.70
2019-02-26T15:19:17.024Z,14.70
2019-02-26T15:21:47.815Z,14.70
2019-02-26T15:24:18.523Z,14.70
2019-02-26T15:26:49.169Z,14.40
2019-02-26T15:29:19.875Z,14.40
2019-02-26T15:31:50.831Z,14.50
2019-02-26T15:34:22.284Z,14.30
2019-02-26T15:36:53.070Z,14.20
2019-02-26T15:39:24.096Z,14.40
2019-02-26T15:41:54.932Z,14.40
2019-02-26T15:44:26.163Z,14.20
2019-02-26T15:46:59.597Z,14.00
2019-02-26T15:49:30.824Z,14.40
2019-02-26T15:52:01.747Z,14.20
2019-02-26T15:54:32.358Z,14.20
2019-02-26T15:57:03.057Z,14.10
2019-02-26T15:59:35.608Z,13.90
2019-02-26T16:02:06.343Z,13.70
2019-02-26T16:04:37.208Z,13.50
2019-02-26T16:07:07.854Z,13.40
2019-02-26T16:09:38.482Z,13.40
2019-02-26T16:12:09.072Z,13.20
2019-02-26T16:14:40.064Z,13.40
2019-02-26T16:17:10.921Z,13.50
2019-02-26T16:19:43.642Z,13.40
2019-02-26T16:22:14.433Z,13.20
2019-02-26T16:24:45.080Z,13.20
2019-02-26T16:27:15.942Z,13.00
2019-02-26T16:29:46.915Z,12.80
2019-02-26T16:32:17.581Z,12.70
2019-02-26T16:34:52.302Z,12.60
2019-02-26T16:37:22.258Z,12.70
2019-02-26T16:39:52.997Z,12.60
2019-02-26T16:42:24.082Z,12.40
2019-02-26T16:44:55.531Z,12.30
2019-02-26T16:47:27.319Z,12.20
2019-02-26T16:49:58.667Z,12.30
2019-02-26T16:52:30.359Z,12.10
2019-02-26T16:55:01.095Z,12.10
2019-02-26T16:57:32.289Z,11.90
2019-02-26T17:00:03.195Z,11.60
2019-02-26T17:02:34.255Z,11.40
2019-02-26T17:05:05.065Z,11.30
2019-02-26T17:07:36.223Z,11.10
2019-02-26T17:10:09.075Z,11.10
2019-02-26T17:12:40.361Z,11.20
2019-02-26T17:15:17.964Z,11.10
2019-02-26T17:17:48.729Z,11.00
2019-02-26T17:20:23.150Z,11.10
2019-02-26T17:22:54.012Z,10.80
2019-02-26T17:25:27.283Z,10.40
2019-02-26T17:27:57.298Z,10.20
2019-02-26T17:30:28.180Z,10.30
2019-02-26T17:32:59.102Z,10.20
2019-02-26T17:35:30.213Z,10.10
2019-02-26T17:38:01.137Z,9.80
2019-02-26T17:40:33.905Z,9.50
2019-02-26T17:43:05.156Z,9.40
2019-02-26T17:45:37.193Z,9.50
2019-02-26T17:48:08.539Z,9.40
2019-02-26T17:50:39.598Z,9.30
2019-02-26T17:53:10.509Z,9.20
2019-02-26T17:55:41.202Z,9.00
2019-02-26T17:58:12.075Z,8.80
2019-02-26T18:00:44.632Z,8.80
2019-02-26T18:03:15.345Z,8.70
2019-02-26T18:05:51.201Z,8.50
2019-02-26T18:08:19.106Z,8.40
2019-02-26T18:10:50.256Z,8.40
2019-02-26T18:13:22.342Z,8.30
2019-02-26T18:15:56.044Z,8.30
2019-02-26T18:18:25.540Z,8.20
2019-02-26T18:20:56.203Z,8.00
2019-02-26T18:23:27.103Z,7.90
2019-02-26T18:25:58.160Z,7.70
2019-02-26T18:28:28.854Z,7.60
2019-02-26T18:30:59.599Z,7.60
2019-02-26T18:33:30.478Z,7.50
2019-02-26T18:36:01.223Z,7.40
2019-02-26T18:38:32.587Z,7.30
2019-02-26T18:41:03.311Z,7.20
2019-02-26T18:43:34.466Z,7.00
2019-02-26T18:46:05.367Z,6.90
2019-02-26T18:48:36.310Z,6.90
2019-02-26T18:51:07.352Z,6.70
2019-02-26T18:53:38.400Z,6.60
2019-02-26T18:56:09.137Z,6.50
2019-02-26T18:58:41.801Z,6.50
2019-02-26T19:01:12.459Z,6.40
2019-02-26T19:03:43.307Z,6.40
2019-02-26T19:06:14.240Z,6.20
2019-02-26T19:08:45.373Z,6.20
2019-02-26T19:11:16.775Z,6.40
2019-02-26T19:13:47.925Z,6.50
2019-02-26T19:16:20.720Z,6.30
2019-02-26T19:18:51.294Z,6.10
2019-02-26T19:21:22.634Z,6.00
2019-02-26T19:23:53.430Z,5.80
2019-02-26T19:26:24.544Z,5.70
2019-02-26T19:28:56.765Z,5.70
2019-02-26T19:31:27.848Z,5.70
2019-02-26T19:33:58.596Z,5.70
2019-02-26T19:36:29.630Z,5.70
2019-02-26T19:39:00.958Z,5.50
2019-02-26T19:41:32.311Z,5.30
2019-02-26T19:44:03.293Z,5.30
2019-02-26T19:46:34.626Z,5.30
2019-02-26T19:49:05.784Z,5.10
2019-02-26T19:51:37.599Z,5.00
2019-02-26T19:54:08.508Z,5.00
2019-02-26T19:56:39.416Z,4.90
2019-02-26T19:59:13.511Z,4.90
2019-02-26T20:01:42.772Z,4.70
2019-02-26T20:04:13.539Z,4.70
2019-02-26T20:06:44.201Z,4.60
2019-02-26T20:09:16.609Z,4.50
2019-02-26T20:11:48.522Z,4.50
2019-02-26T20:14:21.736Z,4.50
2019-02-26T20:16:51.795Z,4.40
2019-02-26T20:19:22.725Z,4.30
2019-02-26T20:21:54.583Z,4.30
2019-02-26T20:24:25.470Z,4.20
2019-02-26T20:26:56.391Z,4.00
2019-02-26T20:29:27.372Z,4.00
2019-02-26T20:31:58.372Z,4.00
2019-02-26T20:34:29.403Z,3.90
2019-02-26T20:37:00.317Z,3.90
2019-02-26T20:39:31.010Z,3.90
2019-02-26T20:42:01.678Z,3.80
2019-02-26T20:44:32.522Z,3.60
2019-02-26T20:47:03.400Z,3.60
2019-02-26T20:49:34.393Z,3.50
2019-02-26T20:52:05.337Z,3.50
2019-02-26T20:54:36.607Z,3.50
2019-02-26T20:57:07.610Z,3.50
2019-02-26T20:59:40.321Z,3.40
2019-02-26T21:02:10.825Z,3.30
2019-02-26T21:04:41.461Z,3.30
2019-02-26T21:07:13.652Z,3.30
2019-02-26T21:09:44.388Z,3.30
2019-02-26T21:12:15.091Z,3.20
2019-02-26T21:14:45.852Z,3.10
2019-02-26T21:17:16.453Z,3.10
2019-02-26T21:19:47.375Z,3.00
2019-02-26T21:22:19.786Z,3.00
2019-02-26T21:24:50.788Z,3.00
2019-02-26T21:27:23.730Z,2.90
2019-02-26T21:29:55.411Z,2.80
2019-02-26T21:32:26.378Z,2.80
2019-02-26T21:34:57.296Z,2.90
2019-02-26T21:37:27.895Z,3.00
2019-02-26T21:39:58.596Z,2.90
2019-02-26T21:42:29.681Z,2.90
2019-02-26T21:45:00.526Z,2.80
2019-02-26T21:47:31.435Z,2.70
2019-02-26T21:50:02.459Z,2.60
2019-02-26T21:52:33.110Z,2.50
2019-02-26T21:55:03.683Z,2.50
2019-02-26T21:57:34.709Z,2.50
2019-02-26T22:00:06.240Z,2.40
2019-02-26T22:02:36.869Z,2.30
2019-02-26T22:05:08.254Z,2.20
2019-02-26T22:07:38.894Z,2.20
2019-02-26T22:10:11.767Z,2.20
2019-02-26T22:12:42.615Z,2.20
2019-02-26T22:15:14.628Z,2.20
2019-02-26T22:17:45.508Z,2.10
2019-02-26T22:20:23.451Z,2.10
2019-02-26T22:22:49.205Z,2.10
2019-02-26T22:25:19.957Z,2.00
2019-02-26T22:27:50.608Z,1.80
2019-02-26T22:30:24.781Z,1.80
2019-02-26T22:32:55.557Z,1.80
2019-02-26T22:35:26.530Z,1.90
2019-02-26T22:37:57.144Z,1.80
2019-02-26T22:40:29.240Z,1.70
2019-02-26T22:43:00.617Z,1.70
2019-02-26T22:45:31.505Z,1.70
2019-02-26T22:48:02.100Z,1.70
2019-02-26T22:50:32.732Z,1.60
2019-02-26T22:53:03.968Z,1.60
2019-02-26T22:55:35.790Z,1.50
2019-02-26T22:58:06.756Z,1.50
2019-02-26T23:01:01.411Z,1.40
2019-02-26T23:03:32.113Z,1.50
2019-02-26T23:06:02.679Z,1.30
2019-02-26T23:08:33.555Z,1.30
2019-02-26T23:11:04.494Z,1.30
2019-02-26T23:13:35.520Z,1.30
2019-02-26T23:16:06.520Z,1.20
2019-02-26T23:18:37.298Z,1.20
2019-02-26T23:21:08.338Z,1.20
2019-02-26T23:23:39.246Z,1.10
2019-02-26T23:26:10.061Z,1.20
2019-02-26T23:28:40.795Z,1.10
2019-02-26T23:31:12.184Z,1.10
2019-02-26T23:33:42.807Z,1.10
2019-02-26T23:36:14.025Z,1.10
2019-02-26T23:38:44.785Z,1.00
2019-02-26T23:41:15.603Z,1.00
2019-02-26T23:43:46.531Z,1.00
2019-02-26T23:46:17.181Z,0.90
2019-02-26T23:48:47.777Z,0.80
2019-02-26T23:51:21.035Z,0.80
2019-02-26T23:53:51.124Z,0.80
2019-02-26T23:56:23.058Z,0.70
2019-02-26T23:58:53.761Z,0.80
